Time;durP1;ratioP1;P1;durP2;ratioP2;P2;SDS_P1;SDS_P2;PMS_P1;PMS_P2;Temp;Humidity;BMP_temperature;BMP_pressure;BME280_temperature;BME280_humidity;BME280_pressure;Samples;Min_cycle;Max_cycle;Signal;HPM_P1;HPM_P2
2022/08/29 00:00:08;;;;;;;17.98;8.45;;;;;;;;;;5054185;28;20092;-64
2022/08/29 00:02:34;;;;;;;15.82;8.10;;;;;;;;;;5053869;28;20536;-63
2022/08/29 00:05:00;;;;;;;17.23;8.63;;;;;;;;;;5053535;28;20064;-63
2022/08/29 00:07:26;;;;;;;20.30;9.30;;;;;;;;;;5052417;28;20428;-63
2022/08/29 00:09:52;;;;;;;15.23;8.60;;;;;;;;;;5053854;28;20496;-64
2022/08/29 00:12:18;;;;;;;16.23;8.43;;;;;;;;;;5053861;28;20052;-64
2022/08/29 00:14:44;;;;;;;16.67;8.40;;;;;;;;;;5052513;28;20032;-63
2022/08/29 00:17:10;;;;;;;15.25;8.40;;;;;;;;;;5053511;28;20489;-64
2022/08/29 00:19:37;;;;;;;15.88;8.63;;;;;;;;;;5053582;28;20108;-63
2022/08/29 00:22:03;;;;;;;16.00;8.45;;;;;;;;;;5052015;28;20052;-64
2022/08/29 00:24:29;;;;;;;18.42;8.20;;;;;;;;;;5053603;28;20032;-63
2022/08/29 00:26:55;;;;;;;15.93;8.50;;;;;;;;;;5053507;28;20025;-63
2022/08/29 00:29:21;;;;;;;18.60;8.40;;;;;;;;;;5053439;28;20100;-61
2022/08/29 00:31:47;;;;;;;19.00;8.77;;;;;;;;;;5053617;28;20024;-63
2022/08/29 00:34:13;;;;;;;16.95;8.45;;;;;;;;;;5053470;28;20535;-63
2022/08/29 00:36:39;;;;;;;15.18;8.48;;;;;;;;;;5053798;28;20040;-63
2022/08/29 00:39:05;;;;;;;17.65;8.80;;;;;;;;;;5053216;28;20036;-62
2022/08/29 00:41:31;;;;;;;15.90;8.80;;;;;;;;;;5053354;28;20500;-62
2022/08/29 00:43:57;;;;;;;15.05;8.10;;;;;;;;;;5052068;28;20036;-62
2022/08/29 00:46:29;;;;;;;17.65;8.40;;;;;;;;;;5053222;28;20024;-60
2022/08/29 00:48:56;;;;;;;16.33;8.52;;;;;;;;;;5053027;28;20053;-62
2022/08/29 00:51:23;;;;;;;18.98;9.05;;;;;;;;;;5053081;28;20055;-61
2022/08/29 00:54:01;;;;;;;14.98;8.60;;;;;;;;;;5052832;28;20033;-63
2022/08/29 00:56:28;;;;;;;17.02;8.68;;;;;;;;;;5053049;28;20029;-63
2022/08/29 00:58:56;;;;;;;18.42;8.75;;;;;;;;;;5052861;28;20147;-61
2022/08/29 01:01:23;;;;;;;16.27;8.93;;;;;;;;;;5053034;28;20029;-62
2022/08/29 01:03:49;;;;;;;15.30;8.68;;;;;;;;;;5053106;28;20104;-62
2022/08/29 01:06:15;;;;;;;20.35;9.18;;;;;;;;;;5051421;28;20025;-62
2022/08/29 01:08:42;;;;;;;15.95;8.35;;;;;;;;;;5052619;28;20025;-62
2022/08/29 01:13:54;;;;;;;17.70;8.75;;;;;;;;;;5053020;28;20036;-62
2022/08/29 01:16:22;;;;;;;16.77;8.65;;;;;;;;;;5052545;28;20024;-62
2022/08/29 01:18:50;;;;;;;16.40;8.48;;;;;;;;;;5052377;28;20028;-62
2022/08/29 01:21:22;;;;;;;16.57;8.53;;;;;;;;;;5052373;28;20469;-63
2022/08/29 01:23:48;;;;;;;20.92;8.70;;;;;;;;;;5052607;28;20036;-63
2022/08/29 01:26:14;;;;;;;18.17;8.50;;;;;;;;;;5052311;28;20017;-63
2022/08/29 01:28:41;;;;;;;18.20;8.57;;;;;;;;;;5052115;28;20520;-62
2022/08/29 01:31:16;;;;;;;18.40;8.63;;;;;;;;;;5052613;28;20052;-63
2022/08/29 01:33:42;;;;;;;18.40;8.68;;;;;;;;;;5052087;28;20032;-63
2022/08/29 01:36:09;;;;;;;17.45;8.82;;;;;;;;;;5051098;28;20385;-63
2022/08/29 01:38:37;;;;;;;21.02;9.32;;;;;;;;;;5052069;28;20029;-63
2022/08/29 01:41:03;;;;;;;16.10;8.57;;;;;;;;;;5050772;28;20021;-63
2022/08/29 01:43:30;;;;;;;19.40;9.38;;;;;;;;;;5052004;28;20462;-63
2022/08/29 01:45:57;;;;;;;18.55;9.20;;;;;;;;;;5052063;28;20049;-62
2022/08/29 01:48:23;;;;;;;18.40;9.38;;;;;;;;;;5050408;28;20028;-62
2022/08/29 01:50:49;;;;;;;16.35;9.13;;;;;;;;;;5051704;28;20025;-62
2022/08/29 01:53:15;;;;;;;16.75;9.63;;;;;;;;;;5051972;28;20492;-63
2022/08/29 01:55:41;;;;;;;17.23;9.00;;;;;;;;;;5051772;28;20025;-63
2022/08/29 01:58:08;;;;;;;17.98;9.18;;;;;;;;;;5050279;28;20021;-63
2022/08/29 02:00:34;;;;;;;18.55;9.82;;;;;;;;;;5050506;28;20117;-63
2022/08/29 02:03:00;;;;;;;16.00;9.13;;;;;;;;;;5051800;28;20547;-63
2022/08/29 02:05:28;;;;;;;18.25;9.13;;;;;;;;;;5051745;28;20017;-63
2022/08/29 02:07:55;;;;;;;17.33;8.90;;;;;;;;;;5051386;28;20029;-63
2022/08/29 02:10:21;;;;;;;18.88;9.55;;;;;;;;;;5051814;28;20025;-63
2022/08/29 02:12:47;;;;;;;17.23;9.60;;;;;;;;;;5051686;28;20025;-63
2022/08/29 02:15:15;;;;;;;16.75;9.70;;;;;;;;;;5051639;28;20107;-63
2022/08/29 02:17:41;;;;;;;18.65;9.63;;;;;;;;;;5049602;28;20025;-63
2022/08/29 02:20:08;;;;;;;16.88;9.45;;;;;;;;;;5051760;28;20048;-63
2022/08/29 02:22:34;;;;;;;17.27;9.43;;;;;;;;;;5051641;28;20037;-62
2022/08/29 02:25:00;;;;;;;22.45;10.75;;;;;;;;;;5050385;28;20052;-63
2022/08/29 02:27:27;;;;;;;18.50;9.32;;;;;;;;;;5050186;28;20123;-63
2022/08/29 02:29:53;;;;;;;20.40;9.35;;;;;;;;;;5051504;28;20033;-65
2022/08/29 02:32:20;;;;;;;16.63;9.25;;;;;;;;;;5051432;28;20044;-63
2022/08/29 02:34:46;;;;;;;17.58;9.43;;;;;;;;;;5051363;28;20025;-64
2022/08/29 02:37:12;;;;;;;19.08;9.68;;;;;;;;;;5051557;28;20032;-63
2022/08/29 02:39:38;;;;;;;18.25;8.98;;;;;;;;;;5051545;28;20070;-62
2022/08/29 02:42:05;;;;;;;18.40;10.68;;;;;;;;;;5051705;28;20029;-63
2022/08/29 02:44:31;;;;;;;21.30;10.45;;;;;;;;;;5051603;28;20035;-63
2022/08/29 02:46:57;;;;;;;19.02;10.60;;;;;;;;;;5051624;28;20033;-64
2022/08/29 02:49:23;;;;;;;17.55;9.75;;;;;;;;;;5051312;28;20453;-64
2022/08/29 02:51:49;;;;;;;19.13;9.77;;;;;;;;;;5051310;28;20031;-65
2022/08/29 02:54:15;;;;;;;19.73;9.73;;;;;;;;;;5051537;28;20032;-63
2022/08/29 02:56:41;;;;;;;18.33;10.40;;;;;;;;;;5051130;28;20115;-64
2022/08/29 02:59:07;;;;;;;19.85;10.02;;;;;;;;;;5050915;28;20029;-64
2022/08/29 03:01:33;;;;;;;19.60;10.18;;;;;;;;;;5051293;28;20477;-64
2022/08/29 03:04:00;;;;;;;18.42;9.65;;;;;;;;;;5049962;28;20036;-64
2022/08/29 03:06:26;;;;;;;17.83;10.50;;;;;;;;;;5050120;28;20503;-64
2022/08/29 03:08:52;;;;;;;18.02;10.50;;;;;;;;;;5051143;28;20147;-64
2022/08/29 03:11:19;;;;;;;17.77;10.05;;;;;;;;;;5051313;28;20044;-63
2022/08/29 03:13:45;;;;;;;18.85;10.55;;;;;;;;;;5051336;28;20033;-63
2022/08/29 03:16:11;;;;;;;19.23;10.23;;;;;;;;;;5050036;28;20021;-62
2022/08/29 03:18:37;;;;;;;20.48;10.98;;;;;;;;;;5051213;28;20021;-63
2022/08/29 03:21:03;;;;;;;18.13;11.10;;;;;;;;;;5051146;28;20171;-63
2022/08/29 03:23:29;;;;;;;18.73;10.80;;;;;;;;;;5051610;28;20099;-64
2022/08/29 03:25:55;;;;;;;19.73;11.77;;;;;;;;;;5051231;28;20440;-64
2022/08/29 03:28:21;;;;;;;19.50;10.95;;;;;;;;;;5050999;28;20048;-62
2022/08/29 03:30:47;;;;;;;18.77;10.93;;;;;;;;;;5053513;28;20430;-63
2022/08/29 03:33:13;;;;;;;19.17;11.02;;;;;;;;;;5053271;28;20031;-63
2022/08/29 03:35:39;;;;;;;19.15;11.57;;;;;;;;;;5054683;28;20107;-64
2022/08/29 03:38:05;;;;;;;18.40;10.43;;;;;;;;;;5054346;28;20021;-64
2022/08/29 03:40:32;;;;;;;20.15;10.63;;;;;;;;;;5053173;28;20021;-63
2022/08/29 03:42:59;;;;;;;17.90;11.32;;;;;;;;;;5054272;28;20045;-62
2022/08/29 03:45:25;;;;;;;18.80;11.43;;;;;;;;;;5053663;28;20544;-64
2022/08/29 03:47:52;;;;;;;19.55;10.75;;;;;;;;;;5053870;28;20480;-63
2022/08/29 03:50:18;;;;;;;19.85;11.82;;;;;;;;;;5054384;28;20470;-63
2022/08/29 03:52:45;;;;;;;19.08;10.95;;;;;;;;;;5054111;28;20021;-63
2022/08/29 03:55:11;;;;;;;22.05;11.80;;;;;;;;;;5053660;28;20426;-63
2022/08/29 03:57:37;;;;;;;19.42;11.30;;;;;;;;;;5053965;28;20025;-63
2022/08/29 04:00:09;;;;;;;19.73;11.40;;;;;;;;;;5053982;28;20025;-64
2022/08/29 04:02:35;;;;;;;19.05;11.02;;;;;;;;;;5053768;28;20013;-63
2022/08/29 04:05:08;;;;;;;21.98;11.43;;;;;;;;;;5052721;28;20499;-64
2022/08/29 04:07:42;;;;;;;20.90;11.73;;;;;;;;;;5053689;28;20163;-64
2022/08/29 04:10:09;;;;;;;19.73;11.73;;;;;;;;;;5053864;28;20025;-64
2022/08/29 04:12:36;;;;;;;20.02;12.00;;;;;;;;;;5053791;28;20422;-61
2022/08/29 04:15:02;;;;;;;23.83;11.80;;;;;;;;;;5053605;28;20114;-63
2022/08/29 04:17:28;;;;;;;20.10;11.30;;;;;;;;;;5053788;28;20147;-62
2022/08/29 04:19:54;;;;;;;20.30;12.15;;;;;;;;;;5053646;28;20473;-62
2022/08/29 04:22:20;;;;;;;26.42;12.32;;;;;;;;;;5053337;28;20039;-63
2022/08/29 04:24:46;;;;;;;18.80;12.35;;;;;;;;;;5053471;28;20029;-62
2022/08/29 04:27:12;;;;;;;20.33;11.65;;;;;;;;;;5053281;28;20025;-63
2022/08/29 04:29:38;;;;;;;19.30;12.15;;;;;;;;;;5052279;28;20060;-62
2022/08/29 04:32:04;;;;;;;19.73;11.98;;;;;;;;;;5053387;28;20056;-63
2022/08/29 04:34:30;;;;;;;20.70;12.10;;;;;;;;;;5052323;28;20024;-63
2022/08/29 04:36:58;;;;;;;23.33;13.57;;;;;;;;;;5052043;28;20021;-62
2022/08/29 04:39:24;;;;;;;18.90;12.07;;;;;;;;;;5053229;28;20036;-64
2022/08/29 04:41:50;;;;;;;20.35;12.63;;;;;;;;;;5052394;28;20075;-61
2022/08/29 04:44:16;;;;;;;18.23;11.88;;;;;;;;;;5053589;28;20025;-61
2022/08/29 04:46:42;;;;;;;18.70;11.98;;;;;;;;;;5052295;28;20036;-62
2022/08/29 04:49:08;;;;;;;19.77;12.35;;;;;;;;;;5053835;28;20025;-62
2022/08/29 04:51:35;;;;;;;19.98;11.98;;;;;;;;;;5053406;28;20025;-62
2022/08/29 04:54:01;;;;;;;20.35;11.80;;;;;;;;;;5053118;28;20397;-62
2022/08/29 04:56:27;;;;;;;19.63;11.80;;;;;;;;;;5053797;28;20013;-62
2022/08/29 04:58:53;;;;;;;19.63;12.68;;;;;;;;;;5052506;28;20473;-62
2022/08/29 05:01:21;;;;;;;20.67;11.95;;;;;;;;;;5052848;28;20104;-64
2022/08/29 05:03:47;;;;;;;22.87;12.20;;;;;;;;;;5052913;28;20035;-62
2022/08/29 05:06:15;;;;;;;21.35;13.10;;;;;;;;;;5052668;28;20063;-62
2022/08/29 05:08:41;;;;;;;21.05;12.55;;;;;;;;;;5052589;28;20025;-62
2022/08/29 05:11:11;;;;;;;22.45;12.98;;;;;;;;;;5052393;28;20032;-63
2022/08/29 05:13:37;;;;;;;17.92;11.23;;;;;;;;;;5052687;28;20040;-63
2022/08/29 05:16:08;;;;;;;21.10;13.82;;;;;;;;;;5052281;28;20017;-62
2022/08/29 05:18:34;;;;;;;20.25;11.90;;;;;;;;;;5051088;28;20093;-63
2022/08/29 05:23:33;;;;;;;19.38;11.95;;;;;;;;;;5046748;23;20076;-59
2022/08/29 05:26:01;;;;;;;22.90;11.63;;;;;;;;;;5043343;28;20071;-59
2022/08/29 05:28:27;;;;;;;23.00;15.38;;;;;;;;;;5051734;28;20057;-59
2022/08/29 05:30:54;;;;;;;20.00;12.60;;;;;;;;;;5051648;28;20453;-60
2022/08/29 05:33:20;;;;;;;21.13;12.77;;;;;;;;;;5050338;28;20024;-60
2022/08/29 05:35:46;;;;;;;19.77;12.27;;;;;;;;;;5031507;28;20025;-60
2022/08/29 05:38:12;;;;;;;20.20;12.63;;;;;;;;;;5030108;28;20077;-61
2022/08/29 05:40:38;;;;;;;19.95;12.30;;;;;;;;;;5031572;28;20025;-55
2022/08/29 05:43:04;;;;;;;18.73;12.27;;;;;;;;;;5031225;28;20030;-55
2022/08/29 05:45:31;;;;;;;19.63;12.13;;;;;;;;;;5031588;28;20029;-61
2022/08/29 05:47:58;;;;;;;26.73;12.20;;;;;;;;;;5031227;28;20053;-57
2022/08/29 05:50:24;;;;;;;20.05;12.38;;;;;;;;;;5033167;28;20045;-57
2022/08/29 05:52:50;;;;;;;18.88;11.50;;;;;;;;;;5050759;28;20108;-60
2022/08/29 05:55:16;;;;;;;19.35;12.25;;;;;;;;;;5050899;28;20108;-61
2022/08/29 05:57:42;;;;;;;18.75;12.15;;;;;;;;;;5050994;28;20427;-60
2022/08/29 06:00:08;;;;;;;19.13;12.10;;;;;;;;;;5051485;28;20027;-58
2022/08/29 06:02:34;;;;;;;21.05;13.73;;;;;;;;;;5051377;28;20029;-60
2022/08/29 06:05:00;;;;;;;20.85;12.35;;;;;;;;;;5050123;28;20074;-61
2022/08/29 06:07:26;;;;;;;21.50;12.27;;;;;;;;;;5050939;28;20473;-61
2022/08/29 06:09:52;;;;;;;19.52;11.77;;;;;;;;;;5051261;28;20029;-55
2022/08/29 06:12:19;;;;;;;23.92;13.02;;;;;;;;;;5051219;28;20476;-60
2022/08/29 06:14:45;;;;;;;19.17;12.40;;;;;;;;;;5051300;28;20029;-57
2022/08/29 06:17:11;;;;;;;20.10;12.55;;;;;;;;;;5049539;28;20029;-53
2022/08/29 06:19:38;;;;;;;20.67;12.05;;;;;;;;;;5031135;28;20089;-55
2022/08/29 06:22:05;;;;;;;20.65;12.90;;;;;;;;;;5030996;28;20033;-58
2022/08/29 06:24:32;;;;;;;21.23;12.07;;;;;;;;;;5030962;28;20402;-57
2022/08/29 06:26:58;;;;;;;19.95;11.50;;;;;;;;;;5031088;28;20045;-51
2022/08/29 06:29:25;;;;;;;21.55;11.95;;;;;;;;;;5029655;28;20190;-59
2022/08/29 06:31:52;;;;;;;24.33;11.73;;;;;;;;;;5031151;28;20521;-54
2022/08/29 06:34:18;;;;;;;23.50;12.25;;;;;;;;;;5029649;28;20032;-57
2022/08/29 06:36:44;;;;;;;25.27;12.60;;;;;;;;;;5031174;28;20025;-62
2022/08/29 06:39:10;;;;;;;18.85;12.23;;;;;;;;;;5029750;28;20397;-58
2022/08/29 06:41:41;;;;;;;23.33;12.57;;;;;;;;;;5031061;28;20021;-57
2022/08/29 06:44:07;;;;;;;21.02;11.85;;;;;;;;;;5031189;28;20102;-59
2022/08/29 06:46:35;;;;;;;20.58;11.05;;;;;;;;;;5029926;28;20026;-59
2022/08/29 06:49:03;;;;;;;16.95;11.32;;;;;;;;;;5030797;28;20032;-61
2022/08/29 06:51:31;;;;;;;19.25;12.38;;;;;;;;;;5033448;28;20075;-60
2022/08/29 06:53:57;;;;;;;;;;;;;;;;;;5051209;28;20021;-58
2022/08/29 06:56:23;;;;;;;22.25;12.85;;;;;;;;;;5050994;28;20472;-59
2022/08/29 06:58:49;;;;;;;20.42;12.40;;;;;;;;;;5050950;28;20025;-62
2022/08/29 07:01:16;;;;;;;19.70;11.57;;;;;;;;;;5050541;28;20021;-60
2022/08/29 07:03:42;;;;;;;20.00;11.77;;;;;;;;;;5052295;28;20131;-59
2022/08/29 07:06:09;;;;;;;19.38;11.90;;;;;;;;;;5054694;28;20033;-61
2022/08/29 07:08:35;;;;;;;20.52;12.30;;;;;;;;;;5054981;28;20021;-59
2022/08/29 07:11:02;;;;;;;19.35;12.27;;;;;;;;;;5054818;28;20025;-62
2022/08/29 07:13:28;;;;;;;21.10;12.15;;;;;;;;;;5054641;28;20079;-61
2022/08/29 07:15:54;;;;;;;24.10;12.52;;;;;;;;;;5053220;28;20083;-60
2022/08/29 07:18:20;;;;;;;19.85;12.10;;;;;;;;;;5051499;28;20062;-61
2022/08/29 07:20:47;;;;;;;18.67;11.52;;;;;;;;;;5034733;28;20036;-59
2022/08/29 07:23:13;;;;;;;21.33;14.43;;;;;;;;;;5034467;28;20397;-60
2022/08/29 07:25:39;;;;;;;24.58;12.68;;;;;;;;;;5033076;28;20033;-58
2022/08/29 07:28:05;;;;;;;22.17;12.30;;;;;;;;;;5032986;28;20029;-56
2022/08/29 07:30:31;;;;;;;23.50;12.30;;;;;;;;;;5034679;28;20060;-60
2022/08/29 07:32:58;;;;;;;25.13;12.20;;;;;;;;;;5034509;28;20037;-60
2022/08/29 07:35:24;;;;;;;19.08;11.85;;;;;;;;;;5034479;28;20032;-58
2022/08/29 07:37:50;;;;;;;22.33;11.75;;;;;;;;;;5034063;28;20022;-54
2022/08/29 07:40:16;;;;;;;21.83;12.13;;;;;;;;;;5034144;28;20386;-60
2022/08/29 07:42:43;;;;;;;20.73;12.65;;;;;;;;;;5034170;28;20018;-63
2022/08/29 07:45:10;;;;;;;18.90;12.57;;;;;;;;;;5034172;28;20508;-63
2022/08/29 07:47:36;;;;;;;19.77;11.98;;;;;;;;;;5033893;28;20045;-53
2022/08/29 07:50:03;;;;;;;19.60;12.23;;;;;;;;;;5033901;28;20120;-52
2022/08/29 07:52:29;;;;;;;20.58;12.63;;;;;;;;;;5033559;28;20513;-54
2022/08/29 07:54:56;;;;;;;19.35;12.30;;;;;;;;;;5033929;28;20025;-55
2022/08/29 07:57:22;;;;;;;21.27;13.38;;;;;;;;;;5034313;28;20028;-54
2022/08/29 07:59:48;;;;;;;20.83;13.10;;;;;;;;;;5034374;28;20041;-55
2022/08/29 08:02:14;;;;;;;21.63;13.07;;;;;;;;;;5034051;28;20022;-55
2022/08/29 08:04:40;;;;;;;23.27;13.02;;;;;;;;;;5032638;28;20022;-57
2022/08/29 08:07:06;;;;;;;20.38;12.48;;;;;;;;;;5033938;28;20103;-57
2022/08/29 08:09:32;;;;;;;19.85;13.00;;;;;;;;;;5033564;28;20120;-55
2022/08/29 08:11:58;;;;;;;20.10;13.07;;;;;;;;;;5033673;28;20021;-56
2022/08/29 08:14:24;;;;;;;18.17;12.20;;;;;;;;;;5033181;28;20051;-55
2022/08/29 08:16:50;;;;;;;21.45;12.90;;;;;;;;;;5033133;28;20048;-49
2022/08/29 08:19:17;;;;;;;20.25;13.38;;;;;;;;;;5033200;28;20014;-56
2022/08/29 08:21:43;;;;;;;20.63;13.07;;;;;;;;;;5033169;28;20029;-55
2022/08/29 08:24:09;;;;;;;21.15;12.77;;;;;;;;;;5033565;28;20025;-55
2022/08/29 08:26:36;;;;;;;25.63;12.70;;;;;;;;;;5033591;28;20030;-58
2022/08/29 08:29:02;;;;;;;23.77;13.20;;;;;;;;;;5035192;28;20120;-58
2022/08/29 08:31:28;;;;;;;19.50;12.48;;;;;;;;;;5044297;28;20028;-55
2022/08/29 08:33:54;;;;;;;21.02;12.63;;;;;;;;;;5053133;28;20017;-54
2022/08/29 08:36:22;;;;;;;20.05;13.02;;;;;;;;;;5053168;28;20082;-58
2022/08/29 08:38:49;;;;;;;20.05;13.27;;;;;;;;;;5038726;28;20034;-55
2022/08/29 08:41:24;;;;;;;17.85;12.50;;;;;;;;;;5050213;28;20029;-50
2022/08/29 08:43:53;;;;;;;20.15;12.95;;;;;;;;;;5046037;28;20064;-52
2022/08/29 08:46:23;;;;;;;18.85;13.43;;;;;;;;;;5033013;28;20074;-57
2022/08/29 08:48:50;;;;;;;21.05;12.98;;;;;;;;;;5035847;28;20116;-54
2022/08/29 08:51:19;;;;;;;18.15;12.35;;;;;;;;;;5041387;28;20036;-52
2022/08/29 08:53:48;;;;;;;20.13;12.70;;;;;;;;;;5051471;28;20133;-55
2022/08/29 08:56:19;;;;;;;17.98;12.45;;;;;;;;;;5049333;28;20033;-47
2022/08/29 08:58:54;;;;;;;23.02;12.90;;;;;;;;;;5053216;28;20106;-57
2022/08/29 09:01:20;;;;;;;20.13;12.15;;;;;;;;;;5053006;28;20477;-57
2022/08/29 09:03:58;;;;;;;18.85;12.75;;;;;;;;;;5052552;28;20104;-54
2022/08/29 09:06:33;;;;;;;19.60;12.40;;;;;;;;;;5052567;28;20473;-56
2022/08/29 09:09:07;;;;;;;20.52;13.00;;;;;;;;;;5052560;28;20021;-60
2022/08/29 09:11:57;;;;;;;19.38;12.20;;;;;;;;;;5048988;28;20021;-57
2022/08/29 09:14:32;;;;;;;17.85;12.30;;;;;;;;;;5052049;28;20493;-58
2022/08/29 09:16:59;;;;;;;17.20;12.40;;;;;;;;;;5050742;28;20128;-57
2022/08/29 09:19:26;;;;;;;18.55;12.50;;;;;;;;;;5047344;28;20507;-60
2022/08/29 09:21:54;;;;;;;18.70;12.15;;;;;;;;;;5040646;28;20115;-58
2022/08/29 09:24:25;;;;;;;18.63;12.13;;;;;;;;;;5042092;28;20367;-53
2022/08/29 09:26:51;;;;;;;17.88;11.90;;;;;;;;;;5044648;28;20021;-58
2022/08/29 09:29:19;;;;;;;21.10;12.65;;;;;;;;;;5029877;28;20211;-55
2022/08/29 09:31:45;;;;;;;18.65;12.05;;;;;;;;;;5031316;28;20021;-64
2022/08/29 09:34:14;;;;;;;17.40;12.10;;;;;;;;;;5031671;28;20037;-62
2022/08/29 09:36:47;;;;;;;18.48;12.68;;;;;;;;;;5031715;28;20025;-63
2022/08/29 09:39:16;;;;;;;20.77;12.07;;;;;;;;;;5031467;28;20021;-60
2022/08/29 09:41:43;;;;;;;20.77;11.88;;;;;;;;;;5031462;28;20032;-63
2022/08/29 09:44:18;;;;;;;21.08;12.75;;;;;;;;;;5035313;28;20056;-62
2022/08/29 09:46:44;;;;;;;18.92;12.13;;;;;;;;;;5042721;28;20021;-61
2022/08/29 09:49:13;;;;;;;17.65;11.68;;;;;;;;;;5049899;28;20029;-61
2022/08/29 09:51:44;;;;;;;18.23;12.20;;;;;;;;;;5044324;28;20108;-60
2022/08/29 09:54:23;;;;;;;20.42;12.93;;;;;;;;;;5044319;28;20128;-62
2022/08/29 09:56:55;;;;;;;18.92;12.20;;;;;;;;;;5051422;28;20029;-61
2022/08/29 09:59:25;;;;;;;20.88;12.70;;;;;;;;;;5051064;28;20052;-61
2022/08/29 10:02:10;;;;;;;20.23;12.65;;;;;;;;;;5051203;28;20036;-62
2022/08/29 10:04:37;;;;;;;19.88;12.07;;;;;;;;;;5049748;28;20056;-62
2022/08/29 10:07:08;;;;;;;17.08;12.00;;;;;;;;;;5046848;28;20048;-61
2022/08/29 10:09:34;;;;;;;20.63;12.60;;;;;;;;;;5031002;28;20452;-62
2022/08/29 10:12:05;;;;;;;18.05;12.27;;;;;;;;;;5031118;28;20033;-61
2022/08/29 10:14:43;;;;;;;18.63;12.20;;;;;;;;;;5033689;28;20764;-61
2022/08/29 10:20:10;;;;;;;18.50;13.35;;;;;;;;;;5031842;28;20036;-62
2022/08/29 10:22:46;;;;;;;22.67;16.65;;;;;;;;;;5031254;28;20080;-60
2022/08/29 10:25:23;;;;;;;18.25;12.48;;;;;;;;;;5031323;28;20457;-62
2022/08/29 10:28:08;;;;;;;20.90;12.27;;;;;;;;;;5031450;28;20056;-62
2022/08/29 10:30:57;;;;;;;19.70;13.00;;;;;;;;;;5031864;28;20032;-62
2022/08/29 10:33:38;;;;;;;17.58;12.27;;;;;;;;;;5037531;28;20060;-61
2022/08/29 10:36:29;;;;;;;16.77;11.57;;;;;;;;;;5030874;28;20091;-61
2022/08/29 10:38:55;;;;;;;17.83;12.38;;;;;;;;;;5023998;28;20083;-63
2022/08/29 10:41:34;;;;;;;18.08;12.10;;;;;;;;;;5039830;28;20029;-62
2022/08/29 10:44:05;;;;;;;19.90;12.45;;;;;;;;;;5034640;28;20389;-62
2022/08/29 10:46:50;;;;;;;18.25;12.15;;;;;;;;;;5034756;28;20481;-61
2022/08/29 10:49:16;;;;;;;19.02;12.68;;;;;;;;;;5034306;28;20035;-63
2022/08/29 10:52:01;;;;;;;17.75;11.80;;;;;;;;;;5043277;28;20014;-62
2022/08/29 10:54:36;;;;;;;19.77;12.70;;;;;;;;;;5042045;28;20448;-62
2022/08/29 10:57:03;;;;;;;19.27;13.40;;;;;;;;;;5040830;28;20018;-60
2022/08/29 10:59:44;;;;;;;23.13;16.52;;;;;;;;;;5045877;28;20021;-62
2022/08/29 11:02:32;;;;;;;18.15;12.88;;;;;;;;;;5012990;28;20446;-61
2022/08/29 11:05:00;;;;;;;20.88;12.90;;;;;;;;;;5014728;28;20101;-62
2022/08/29 11:07:31;;;;;;;17.25;12.68;;;;;;;;;;5014612;28;20045;-61
2022/08/29 11:10:04;;;;;;;19.48;12.73;;;;;;;;;;5014783;28;20490;-60
2022/08/29 11:12:33;;;;;;;18.40;12.30;;;;;;;;;;5014394;28;20025;-63
2022/08/29 11:14:59;;;;;;;19.10;12.98;;;;;;;;;;5014353;28;20041;-62
2022/08/29 11:17:28;;;;;;;18.67;12.82;;;;;;;;;;5014304;28;20093;-62
2022/08/29 11:19:57;;;;;;;20.02;13.15;;;;;;;;;;5028606;28;20425;-63
2022/08/29 11:22:30;;;;;;;17.60;12.05;;;;;;;;;;5035333;28;20034;-62
2022/08/29 11:25:07;;;;;;;19.08;12.30;;;;;;;;;;5034290;28;20029;-63
2022/08/29 11:27:36;;;;;;;18.50;12.52;;;;;;;;;;5034442;28;20441;-64
2022/08/29 11:30:28;;;;;;;18.80;13.15;;;;;;;;;;5034494;28;20026;-63
2022/08/29 11:32:57;;;;;;;18.63;13.07;;;;;;;;;;5031617;28;20158;-63
2022/08/29 11:35:34;;;;;;;18.33;12.95;;;;;;;;;;5034486;28;20021;-64
2022/08/29 11:38:29;;;;;;;19.23;13.13;;;;;;;;;;5032934;28;20489;-64
2022/08/29 11:41:11;;;;;;;18.35;12.70;;;;;;;;;;5020390;28;20029;-64
2022/08/29 11:43:39;;;;;;;18.30;12.90;;;;;;;;;;5034041;28;20028;-64
2022/08/29 11:46:06;;;;;;;20.20;12.65;;;;;;;;;;5033748;28;20044;-62
2022/08/29 11:48:33;;;;;;;16.77;12.25;;;;;;;;;;5033779;28;20033;-64
2022/08/29 11:51:00;;;;;;;19.65;12.32;;;;;;;;;;5031359;28;20049;-64
2022/08/29 11:53:36;;;;;;;18.13;13.32;;;;;;;;;;5033239;28;20117;-63
2022/08/29 11:56:22;;;;;;;17.42;12.15;;;;;;;;;;5033682;28;20095;-62
2022/08/29 11:58:49;;;;;;;18.30;12.30;;;;;;;;;;5033353;28;20025;-63
2022/08/29 12:01:25;;;;;;;22.80;14.45;;;;;;;;;;5032684;28;20030;-63
2022/08/29 12:03:52;;;;;;;17.48;12.60;;;;;;;;;;5033559;28;20025;-64
2022/08/29 12:06:35;;;;;;;18.70;12.48;;;;;;;;;;5033420;28;20025;-63
2022/08/29 12:09:20;;;;;;;19.70;12.90;;;;;;;;;;5033063;28;20041;-64
2022/08/29 12:11:59;;;;;;;18.30;13.52;;;;;;;;;;5033045;28;20025;-63
2022/08/29 12:14:30;;;;;;;21.13;13.75;;;;;;;;;;5033353;28;20057;-62
2022/08/29 12:16:58;;;;;;;20.80;13.38;;;;;;;;;;5033165;28;20017;-62
2022/08/29 12:19:43;;;;;;;17.60;13.23;;;;;;;;;;5032894;28;20018;-63
2022/08/29 12:22:09;;;;;;;17.08;13.30;;;;;;;;;;5032757;28;20033;-64
2022/08/29 12:24:38;;;;;;;21.05;14.52;;;;;;;;;;5032989;28;20028;-63
2022/08/29 12:27:04;;;;;;;18.20;13.52;;;;;;;;;;5033040;28;20025;-64
2022/08/29 12:29:32;;;;;;;17.33;13.27;;;;;;;;;;5031362;28;20494;-62
2022/08/29 12:32:14;;;;;;;17.50;13.45;;;;;;;;;;5032122;28;20397;-63
2022/08/29 12:34:46;;;;;;;19.05;13.48;;;;;;;;;;5032884;28;20037;-63
2022/08/29 12:37:21;;;;;;;18.40;13.07;;;;;;;;;;5033062;28;20034;-63
2022/08/29 12:39:59;;;;;;;19.05;12.82;;;;;;;;;;5032805;28;20025;-63
2022/08/29 12:42:44;;;;;;;18.85;13.85;;;;;;;;;;5032117;28;20017;-60
2022/08/29 12:45:13;;;;;;;19.08;13.23;;;;;;;;;;5031068;28;20128;-63
2022/08/29 12:47:46;;;;;;;19.07;13.53;;;;;;;;;;4683006;28;9999801;-60
2022/08/29 12:50:21;;;;;;;18.98;12.95;;;;;;;;;;5029092;28;20536;-63
2022/08/29 12:53:23;;;;;;;18.05;13.30;;;;;;;;;;5029088;28;20122;-64
2022/08/29 12:55:51;;;;;;;17.95;12.48;;;;;;;;;;4979627;28;20503;-62
2022/08/29 12:58:52;;;;;;;16.58;12.85;;;;;;;;;;5001907;28;20041;-63
2022/08/29 13:01:21;;;;;;;19.65;13.05;;;;;;;;;;4986858;28;20462;-63
2022/08/29 13:03:54;;;;;;;17.02;12.70;;;;;;;;;;5022777;28;20392;-61
2022/08/29 13:06:21;;;;;;;18.75;15.40;;;;;;;;;;5030731;28;20025;-60
2022/08/29 13:08:48;;;;;;;17.85;13.85;;;;;;;;;;5029350;28;20017;-61
2022/08/29 13:11:18;;;;;;;16.65;13.20;;;;;;;;;;5036800;28;20040;-61
2022/08/29 13:13:44;;;;;;;19.42;16.08;;;;;;;;;;5031509;28;20428;-62
2022/08/29 13:16:23;;;;;;;18.92;13.30;;;;;;;;;;5039670;28;20052;-62
2022/08/29 13:18:49;;;;;;;16.80;13.65;;;;;;;;;;5042708;28;20516;-61
2022/08/29 13:21:25;;;;;;;17.80;13.73;;;;;;;;;;5022207;28;20204;-63
2022/08/29 13:24:23;;;;;;;18.42;13.20;;;;;;;;;;5030268;28;20856;-60
2022/08/29 13:26:52;;;;;;;16.55;12.93;;;;;;;;;;5005767;28;20033;-61
2022/08/29 13:29:27;;;;;;;17.52;13.15;;;;;;;;;;5028558;28;20024;-61
2022/08/29 13:32:12;;;;;;;16.50;12.65;;;;;;;;;;5032127;28;20040;-63
2022/08/29 13:34:58;;;;;;;16.67;13.02;;;;;;;;;;5036733;28;20033;-63
2022/08/29 13:37:28;;;;;;;16.52;12.80;;;;;;;;;;5035113;28;20036;-63
2022/08/29 13:39:54;;;;;;;19.70;15.68;;;;;;;;;;5037117;28;20630;-62
2022/08/29 13:42:22;;;;;;;17.13;13.82;;;;;;;;;;5037025;28;20497;-61
2022/08/29 13:44:48;;;;;;;19.35;16.67;;;;;;;;;;5038535;28;20033;-60
2022/08/29 13:47:18;;;;;;;16.88;14.30;;;;;;;;;;5037401;28;20021;-60
2022/08/29 13:49:45;;;;;;;17.52;14.02;;;;;;;;;;5038443;28;20026;-62
2022/08/29 13:52:11;;;;;;;17.50;14.43;;;22.60;99.90;;;;;;5035469;28;20070;-61
2022/08/29 13:54:41;;;;;;;16.80;13.00;;;37.90;37.50;;;;;;5034316;28;20035;-61
2022/08/29 13:57:12;;;;;;;17.52;13.48;;;36.00;37.80;;;;;;5038891;28;20026;-59
2022/08/29 13:59:38;;;;;;;18.20;13.88;;;35.10;36.80;;;;;;5035101;28;20377;-63
2022/08/29 14:02:06;;;;;;;17.27;13.70;;;35.90;38.80;;;;;;5038365;28;20032;-63
2022/08/29 14:04:33;;;;;;;18.73;13.90;;;36.70;36.70;;;;;;5037083;28;20397;-61
2022/08/29 14:06:59;;;;;;;18.33;14.13;;;37.30;37.50;;;;;;5046726;28;20021;-64
2022/08/29 14:09:33;;;;;;;17.93;14.20;;;38.30;35.20;;;;;;4690473;28;9999724;-61
2022/08/29 14:12:00;;;;;;;20.33;14.10;;;37.80;34.10;;;;;;5033871;28;20028;-62
2022/08/29 14:14:26;;;;;;;16.52;13.50;;;34.70;35.30;;;;;;5047470;28;20033;-62
2022/08/29 14:16:53;;;;;;;17.83;13.35;;;33.40;38.80;;;;;;5037938;28;20032;-62
2022/08/29 14:19:23;;;;;;;20.40;13.07;;;33.20;38.90;;;;;;5027948;28;20434;-63
2022/08/29 14:21:49;;;;;;;16.30;13.23;;;34.40;39.30;;;;;;5036202;28;20041;-61
2022/08/29 14:24:15;;;;;;;17.70;13.68;;;35.20;36.50;;;;;;5034248;28;20512;-63
2022/08/29 14:26:41;;;;;;;18.60;13.15;;;36.00;38.30;;;;;;5031418;28;20083;-64
2022/08/29 14:29:09;;;;;;;17.25;13.50;;;36.90;36.90;;;;;;5027757;28;20025;-61
2022/08/29 14:31:35;;;;;;;18.48;13.75;;;38.00;34.90;;;;;;5027818;28;20588;-61